14 a 21/9 - Algunas PP N, Cordillera y extremo sur, más estable en el resto (viento Patagonia, nieve Ushuaia)

Avatar de Usuario
Ale de Castelar
Mensajes: 25955
Registrado: Sab Mar 03, 2012 12:25 pm
Ubicación: Caballito

Re: 14 a 21/9 - Algunas PP N, Cordillera y extremo sur, mayormente estable

Mensaje por Ale de Castelar » Mar Sep 15, 2020 12:28 pm

Humahuaca hoy


Stormy
Mensajes: 1258
Registrado: Vie Abr 07, 2017 5:19 pm
Ubicación: La Plata

Re: 14 a 21/9 - Algunas PP N, Cordillera y extremo sur, mayormente estable

Mensaje por Stormy » Mar Sep 15, 2020 1:38 pm

¿Qué es todo este frescor por el AMBA? Por acá apenas 14º al mediodía, no subió de 15 cuando había sol y ahora está nublado. Fail de los modelos nro *000
mateix escribió:pamperos que hacen disparar la T...
Marcelo escribió:Esa térmica es más trucha que cola de tornado.

Avatar de Usuario
Diecha
Mensajes: 11510
Registrado: Jue Ago 25, 2011 9:31 pm
Ubicación: Lomas de Zamora

Re: 14 a 21/9 - Algunas PP N, Cordillera y extremo sur, mayormente estable

Mensaje por Diecha » Mar Sep 15, 2020 3:25 pm

- San Fernando 15 hs: SADF 151800Z 34005KT CAVOK 15/04 Q1019
- Aeroparque 15 hs: SABE 151800Z 35008KT 320V030 CAVOK 15/05 Q1020
- Ezeiza 15 hs: SAEZ 151800Z 05007KT 350V070 CAVOK 16/09 Q1019

Imagen
Imagen
Imagen

Avatar de Usuario
Ernest
Mensajes: 11471
Registrado: Vie Jul 17, 2009 10:54 pm
Ubicación: Balvanera, CABA

Re: 14 a 21/9 - Algunas PP N, Cordillera y extremo sur, mayormente estable

Mensaje por Ernest » Mar Sep 15, 2020 3:47 pm

15 hs
Ya Iguazú está dentro del aire relativamente cálido y húmedo. Posadas tiene 15,2 con 85 % HR.

1 TINOGASTA CATAMARCA 28.4 ºC - 20 %
2 CATAMARCA CATAMARCA 27.6 ºC - 16 %
3 IGUAZU MISIONES 27.3 ºC 27.9 ºC 53 %
4 TERMAS DE RIO HONDO SANTIAGO DEL ESTERO 26.5 ºC - 18 %
5 VILLA REYNOLDS SAN LUIS 26.4 ºC - 15 %
6 VICTORICA LA PAMPA 26.3 ºC - 21 %
7 SANTIAGO DEL ESTERO SANTIAGO DEL ESTERO 26.2 ºC - 18 %
8 RIVADAVIA SALTA 26.1 ºC - 25 %
9 SAN JUAN SAN JUAN 25.4 ºC - 16 %
10 JACHAL SAN JUAN 25.4 ºC - 15 %
11 LA RIOJA LA RIOJA 25.4 ºC - 23 %

107 PUERTO DESEADO SANTA CRUZ 11.2 ºC - 40 %
108 SAN JULIAN SANTA CRUZ 10.7 ºC - 29 %
109 ESQUEL CHUBUT 10.1 ºC - 37 %
110 PERITO MORENO SANTA CRUZ 10.0 ºC - 29 %
111 GOBERNADOR GREGORES SANTA CRUZ 9.6 ºC 5.4 ºC 23 %
112 EL CALAFATE SANTA CRUZ 8.6 ºC 4.3 ºC 41 %
113 SANTA CRUZ SANTA CRUZ 7.9 ºC 4.5 ºC 38 %
114 RIO GRANDE B.A. TIERRA DEL FUEGO 7.0 ºC 2.0 ºC 47 %
115 RIO GALLEGOS SANTA CRUZ 6.6 ºC 1.1 ºC 22 %
116 USHUAIA TIERRA DEL FUEGO 2.4 ºC -3.9 ºC 79 %
Did you want to talk about the weather, or were you just making chitchat?

Twitter: @ErnestoMeteo

Avatar de Usuario
Ezequiel1995
Mensajes: 1208
Registrado: Mar Nov 12, 2019 4:50 pm
Ubicación: Merlo, Buenos Aires
Contactar:

Re: 14 a 21/9 - Algunas PP N, Cordillera y extremo sur, mayormente estable

Mensaje por Ezequiel1995 » Mar Sep 15, 2020 3:48 pm

No me esperaba una tarde tan fresca acá. Para colmo mi mamá y yo estamos engripados (ojalá no sea COVID)

Avatar de Usuario
Diecha
Mensajes: 11510
Registrado: Jue Ago 25, 2011 9:31 pm
Ubicación: Lomas de Zamora

Re: 14 a 21/9 - Algunas PP N, Cordillera y extremo sur, episodios de inestabilidad muy aislados en el resto

Mensaje por Diecha » Mar Sep 15, 2020 6:43 pm

Imagen

Imagen
Spoiler
Mostrar
Imagen
Imagen
Imagen
Imagen
Imagen
Imagen
Imagen
Imagen
Imagen
Imagen
Imagen
Imagen

Avatar de Usuario
Diecha
Mensajes: 11510
Registrado: Jue Ago 25, 2011 9:31 pm
Ubicación: Lomas de Zamora

Re: 14 a 21/9 - Algunas PP N, Cordillera y extremo sur, episodios de inestabilidad muy aislados en el resto

Mensaje por Diecha » Mar Sep 15, 2020 8:15 pm



- Resistencia 20 hs: SARE 152300Z 07009KT 7000 TS OVC050 FEW056CB 20/09 Q1013
- Corrientes 20 hs: SARC 152300Z 11006KT 9999 TS BKN030 OVC040 FEW050CB 18/11 Q1014

Imagen
Imagen

Avatar de Usuario
Ale de Castelar
Mensajes: 25955
Registrado: Sab Mar 03, 2012 12:25 pm
Ubicación: Caballito

Re: 14 a 21/9 - Algunas PP N, Cordillera y extremo sur, episodios de inestabilidad muy aislados en el resto

Mensaje por Ale de Castelar » Mar Sep 15, 2020 9:14 pm

Cuesta de Lipan


Avatar de Usuario
Diecha
Mensajes: 11510
Registrado: Jue Ago 25, 2011 9:31 pm
Ubicación: Lomas de Zamora

Re: 14 a 21/9 - Algunas PP N, Cordillera y extremo sur, episodios de inestabilidad muy aislados en el resto

Mensaje por Diecha » Mar Sep 15, 2020 9:37 pm

Imagen

Imagen
Spoiler
Mostrar
Imagen
Imagen
Imagen
Imagen
Imagen
Imagen
Imagen
Imagen
Imagen
Imagen
Imagen
Última edición por Diecha el Mar Sep 15, 2020 11:58 pm, editado 1 vez en total.

Avatar de Usuario
Carlitos12
Mensajes: 2244
Registrado: Jue Jul 16, 2015 10:39 pm
Ubicación: Ciudad de Corrientes
Contactar:

Re: 14 a 21/9 - Algunas PP N, Cordillera y extremo sur, episodios de inestabilidad muy aislados en el resto

Mensaje por Carlitos12 » Mar Sep 15, 2020 9:40 pm

Me pasa el granizo al norte, la recalcada
Imagen

Responder